createdAt,value
2023-03-29T00:01:36.649Z,11.01
2023-03-29T00:04:06.442Z,10.94
2023-03-29T00:06:33.917Z,11.10
2023-03-29T00:09:01.780Z,11.04
2023-03-29T00:11:28.355Z,10.98
2023-03-29T00:13:54.897Z,11.09
2023-03-29T00:16:21.666Z,10.87
2023-03-29T00:18:48.132Z,10.93
2023-03-29T00:21:14.517Z,10.79
2023-03-29T00:23:41.012Z,11.06
2023-03-29T00:26:08.456Z,10.59
2023-03-29T00:28:35.418Z,10.77
2023-03-29T00:31:10.629Z,11.01
2023-03-29T00:33:37.390Z,11.10
2023-03-29T00:36:05.031Z,11.00
2023-03-29T00:38:32.024Z,10.91
2023-03-29T00:40:59.312Z,10.94
2023-03-29T00:43:25.926Z,10.85
2023-03-29T00:45:52.595Z,10.97
2023-03-29T00:48:28.072Z,10.54
2023-03-29T00:51:00.172Z,10.67
2023-03-29T00:53:35.723Z,10.82
2023-03-29T00:56:10.004Z,10.81
2023-03-29T00:58:44.008Z,10.86
2023-03-29T01:01:19.352Z,10.68
2023-03-29T01:03:50.423Z,10.84
2023-03-29T01:06:18.939Z,10.81
2023-03-29T01:08:54.195Z,10.78
2023-03-29T01:11:28.905Z,10.72
2023-03-29T01:13:59.770Z,10.76
2023-03-29T01:16:29.001Z,10.60
2023-03-29T01:18:58.170Z,11.03
2023-03-29T01:21:44.551Z,11.04
2023-03-29T01:24:24.719Z,10.93
2023-03-29T01:27:13.711Z,10.97
2023-03-29T01:29:47.916Z,10.92
2023-03-29T01:32:19.892Z,10.94
2023-03-29T01:34:53.172Z,10.77
2023-03-29T01:37:27.729Z,10.90
2023-03-29T01:39:54.331Z,10.84
2023-03-29T01:42:49.198Z,10.81
2023-03-29T01:45:27.658Z,10.99
2023-03-29T01:48:17.264Z,10.81
2023-03-29T01:50:51.829Z,10.95
2023-03-29T01:53:27.094Z,10.96
2023-03-29T01:55:57.100Z,10.79
2023-03-29T01:58:33.589Z,10.83
2023-03-29T02:01:05.634Z,10.82
2023-03-29T02:03:34.302Z,10.78
2023-03-29T02:06:03.028Z,10.67
2023-03-29T02:08:30.305Z,10.74
2023-03-29T02:10:56.713Z,10.79
2023-03-29T02:13:23.278Z,10.83
2023-03-29T02:15:49.749Z,10.71
2023-03-29T02:18:18.484Z,10.82
2023-03-29T02:20:48.381Z,10.67
2023-03-29T02:23:34.152Z,10.89
2023-03-29T02:26:01.814Z,10.76
2023-03-29T02:28:29.685Z,10.87
2023-03-29T02:31:05.588Z,11.12
2023-03-29T02:33:42.693Z,11.02
2023-03-29T02:36:17.557Z,10.95
2023-03-29T02:38:44.910Z,10.89
2023-03-29T02:41:12.047Z,11.07
2023-03-29T02:43:39.698Z,11.03
2023-03-29T02:46:07.686Z,10.78
2023-03-29T02:48:37.401Z,11.08
2023-03-29T02:51:16.882Z,10.79
2023-03-29T02:53:51.934Z,10.87
2023-03-29T02:56:20.102Z,10.75
2023-03-29T02:58:46.831Z,10.76
2023-03-29T03:01:14.682Z,10.93
2023-03-29T03:03:41.284Z,10.90
2023-03-29T03:06:07.866Z,10.99
2023-03-29T03:08:34.295Z,10.82
2023-03-29T03:11:01.120Z,10.78
2023-03-29T03:13:27.659Z,10.82
2023-03-29T03:15:54.124Z,10.93
2023-03-29T03:18:20.768Z,10.97
2023-03-29T03:21:01.924Z,11.03
2023-03-29T03:23:28.840Z,11.02
2023-03-29T03:25:55.290Z,10.90
2023-03-29T03:28:24.106Z,10.97
2023-03-29T03:30:50.675Z,11.10
2023-03-29T03:33:18.070Z,10.58
2023-03-29T03:35:46.259Z,11.12
2023-03-29T03:38:12.872Z,11.22
2023-03-29T03:40:39.241Z,11.06
2023-03-29T03:43:05.692Z,10.94
2023-03-29T03:45:32.243Z,11.10
2023-03-29T03:47:58.619Z,10.79
2023-03-29T03:50:25.060Z,11.21
2023-03-29T03:52:51.898Z,10.69
2023-03-29T03:55:18.297Z,11.20
2023-03-29T03:57:44.730Z,10.70
2023-03-29T04:00:19.459Z,11.22
2023-03-29T04:02:50.783Z,11.26
2023-03-29T04:05:17.349Z,10.73
2023-03-29T04:07:43.790Z,11.29
2023-03-29T04:10:11.300Z,11.29
2023-03-29T04:12:38.545Z,11.01
2023-03-29T04:15:06.015Z,11.37
2023-03-29T04:17:32.469Z,11.41
2023-03-29T04:19:58.871Z,11.36
2023-03-29T04:22:25.711Z,11.27
2023-03-29T04:24:52.389Z,10.75
2023-03-29T04:27:18.918Z,11.47
2023-03-29T04:29:45.357Z,11.17
2023-03-29T04:32:11.788Z,10.77
2023-03-29T04:34:38.289Z,10.89
2023-03-29T04:37:10.422Z,11.36
2023-03-29T04:39:37.481Z,11.24
2023-03-29T04:42:05.043Z,10.90
2023-03-29T04:44:34.890Z,11.39
2023-03-29T04:47:01.392Z,11.14
2023-03-29T04:49:27.815Z,11.12
2023-03-29T04:51:54.735Z,11.42
2023-03-29T04:54:21.461Z,11.29
2023-03-29T04:56:47.923Z,11.26
2023-03-29T04:59:14.341Z,11.05
2023-03-29T05:01:42.038Z,11.29
2023-03-29T05:04:09.269Z,11.31
2023-03-29T05:06:37.238Z,11.32
2023-03-29T05:09:04.806Z,11.24
2023-03-29T05:11:31.585Z,10.60
2023-03-29T05:14:02.306Z,11.24
2023-03-29T05:16:30.314Z,11.31
2023-03-29T05:18:57.390Z,10.67
2023-03-29T05:21:26.040Z,10.97
2023-03-29T05:23:53.204Z,10.69
2023-03-29T05:26:20.597Z,11.44
2023-03-29T05:28:47.526Z,11.46
2023-03-29T05:31:16.806Z,11.00
2023-03-29T05:33:43.941Z,10.84
2023-03-29T05:36:33.149Z,11.36
2023-03-29T05:38:59.788Z,10.63
2023-03-29T05:41:26.234Z,11.27
2023-03-29T05:43:52.582Z,10.78
2023-03-29T05:46:20.314Z,11.28
2023-03-29T05:48:52.095Z,11.41
2023-03-29T05:51:18.978Z,10.99
2023-03-29T05:53:45.418Z,11.42
2023-03-29T05:56:15.836Z,10.81
2023-03-29T05:58:43.029Z,11.38
2023-03-29T06:01:17.897Z,10.95
2023-03-29T06:06:26.691Z,11.10
2023-03-29T06:08:53.137Z,11.39
2023-03-29T06:11:19.658Z,11.52
2023-03-29T06:13:46.097Z,11.49
2023-03-29T06:16:13.331Z,11.68
2023-03-29T06:18:40.969Z,11.61
2023-03-29T06:21:09.088Z,10.67
2023-03-29T06:23:47.606Z,11.26
2023-03-29T06:26:14.253Z,11.73
2023-03-29T06:28:40.600Z,11.60
2023-03-29T06:31:07.228Z,10.74
2023-03-29T06:33:34.213Z,11.93
2023-03-29T06:36:00.705Z,11.70
2023-03-29T06:38:28.344Z,11.86
2023-03-29T06:41:06.735Z,12.02
2023-03-29T06:43:34.664Z,11.74
2023-03-29T06:46:01.868Z,11.03
2023-03-29T06:48:29.282Z,11.41
2023-03-29T06:50:56.356Z,11.91
2023-03-29T06:53:22.989Z,12.04
2023-03-29T06:55:50.855Z,11.86
2023-03-29T06:58:17.269Z,12.02
2023-03-29T07:00:43.660Z,11.67
2023-03-29T07:03:13.359Z,11.96
2023-03-29T07:05:41.935Z,11.87
2023-03-29T07:08:08.592Z,11.99
2023-03-29T07:10:41.069Z,12.12
2023-03-29T07:13:09.236Z,12.22
2023-03-29T07:15:35.919Z,12.38
2023-03-29T07:18:04.603Z,12.41
2023-03-29T07:20:33.753Z,12.32
2023-03-29T07:23:00.709Z,12.36
2023-03-29T07:25:27.639Z,12.54
2023-03-29T07:27:54.025Z,12.57
2023-03-29T07:30:30.233Z,12.72
2023-03-29T07:32:58.607Z,12.77
2023-03-29T07:35:26.684Z,12.89
2023-03-29T07:37:54.825Z,12.77
2023-03-29T07:40:23.523Z,12.85
2023-03-29T07:42:55.167Z,12.71
2023-03-29T07:45:26.542Z,12.85
2023-03-29T07:47:57.023Z,12.64
2023-03-29T07:50:24.060Z,12.94
2023-03-29T07:52:50.960Z,12.93
2023-03-29T07:55:17.431Z,12.99
2023-03-29T07:57:44.522Z,13.05
2023-03-29T08:00:16.511Z,13.22
2023-03-29T08:02:44.878Z,12.61
2023-03-29T08:05:13.632Z,13.27
2023-03-29T08:07:42.419Z,13.17
2023-03-29T08:10:11.678Z,13.13
2023-03-29T08:12:38.409Z,13.08
2023-03-29T08:15:05.520Z,12.70
2023-03-29T08:17:32.954Z,13.38
2023-03-29T08:19:59.532Z,12.94
2023-03-29T08:22:26.036Z,12.81
2023-03-29T08:24:52.892Z,13.24
2023-03-29T08:27:19.514Z,13.07
2023-03-29T08:29:46.231Z,13.51
2023-03-29T08:32:14.115Z,13.12
2023-03-29T08:34:40.711Z,13.54
2023-03-29T08:37:08.465Z,13.62
2023-03-29T08:39:35.050Z,13.59
2023-03-29T08:42:26.500Z,13.51
2023-03-29T08:45:18.649Z,13.70
2023-03-29T08:47:58.566Z,13.78
2023-03-29T08:50:33.594Z,13.82
2023-03-29T08:53:06.322Z,13.87
2023-03-29T08:55:39.949Z,13.84
2023-03-29T08:58:11.962Z,14.01
2023-03-29T09:00:46.867Z,14.22
2023-03-29T09:03:22.974Z,14.40
2023-03-29T09:06:04.871Z,14.33
2023-03-29T09:08:31.652Z,14.34
2023-03-29T09:11:20.532Z,14.51
2023-03-29T09:14:17.386Z,14.66
2023-03-29T09:16:56.140Z,14.66
2023-03-29T09:19:37.213Z,14.62
2023-03-29T09:22:18.948Z,14.19
2023-03-29T09:25:12.252Z,14.58
2023-03-29T09:27:47.509Z,14.51
2023-03-29T09:30:26.094Z,13.94
2023-03-29T09:32:57.345Z,14.58
2023-03-29T09:35:36.321Z,14.60
2023-03-29T09:38:05.693Z,14.85
2023-03-29T09:40:39.827Z,14.42
2023-03-29T09:43:12.407Z,14.71
2023-03-29T09:45:40.796Z,14.24
2023-03-29T09:48:13.671Z,14.09
2023-03-29T09:50:48.554Z,14.82
2023-03-29T09:53:15.830Z,14.83
2023-03-29T09:55:44.720Z,14.66
2023-03-29T09:58:15.225Z,14.51
2023-03-29T10:00:42.540Z,15.50
2023-03-29T10:03:10.689Z,15.50
2023-03-29T10:05:37.934Z,15.53
2023-03-29T10:08:19.618Z,15.38
2023-03-29T10:10:46.966Z,15.26
2023-03-29T10:13:23.664Z,15.88
2023-03-29T10:16:00.178Z,15.47
2023-03-29T10:18:31.552Z,14.86
2023-03-29T10:21:04.142Z,15.32
2023-03-29T10:23:36.873Z,16.02
2023-03-29T10:26:07.735Z,16.45
2023-03-29T10:28:36.633Z,16.45
2023-03-29T10:31:05.944Z,16.10
2023-03-29T10:33:35.155Z,16.97
2023-03-29T10:36:07.067Z,16.62
2023-03-29T10:38:36.303Z,16.49
2023-03-29T10:41:06.770Z,15.66
2023-03-29T10:43:39.163Z,15.92
2023-03-29T10:46:17.875Z,16.05
2023-03-29T10:48:55.725Z,16.24
2023-03-29T10:51:24.140Z,15.73
2023-03-29T10:53:50.764Z,15.89
2023-03-29T10:56:41.178Z,16.04
2023-03-29T10:59:21.508Z,16.25
2023-03-29T11:02:09.663Z,16.64
2023-03-29T11:05:10.463Z,16.76
2023-03-29T11:08:07.985Z,16.31
2023-03-29T11:10:40.833Z,16.70
2023-03-29T11:13:46.907Z,15.89
2023-03-29T11:16:39.271Z,16.85
2023-03-29T11:19:32.267Z,16.77
2023-03-29T11:22:27.900Z,16.61
2023-03-29T11:25:20.058Z,16.16
2023-03-29T11:28:06.609Z,16.67
2023-03-29T11:30:57.949Z,16.16
2023-03-29T11:33:38.696Z,17.24
2023-03-29T11:36:17.619Z,17.54
2023-03-29T11:39:19.409Z,17.53
2023-03-29T11:41:52.467Z,16.98
2023-03-29T11:44:33.397Z,17.38
2023-03-29T11:47:09.751Z,17.34
2023-03-29T11:49:42.277Z,17.45
2023-03-29T11:52:15.878Z,17.60
2023-03-29T11:55:02.636Z,17.58
2023-03-29T11:57:38.428Z,17.90
2023-03-29T12:00:20.445Z,18.31
2023-03-29T12:03:06.654Z,19.50
2023-03-29T12:05:44.060Z,19.85
2023-03-29T12:08:15.208Z,19.85
2023-03-29T12:11:03.792Z,19.56
2023-03-29T12:13:33.478Z,19.20
2023-03-29T12:16:08.763Z,18.89
2023-03-29T12:18:45.746Z,18.58
2023-03-29T12:21:16.059Z,19.01
2023-03-29T12:23:43.825Z,18.84
2023-03-29T12:26:41.926Z,18.80
2023-03-29T12:29:26.876Z,18.70
2023-03-29T12:31:53.262Z,18.90
2023-03-29T12:34:38.463Z,18.76
2023-03-29T12:37:31.905Z,18.78
2023-03-29T12:40:16.562Z,19.06
2023-03-29T12:42:44.723Z,19.52
2023-03-29T12:45:19.251Z,19.54
2023-03-29T12:47:47.441Z,19.47
2023-03-29T12:50:46.203Z,19.56
2023-03-29T12:53:23.936Z,19.12
2023-03-29T12:56:17.880Z,18.97
2023-03-29T12:59:07.517Z,18.84
2023-03-29T13:01:36.907Z,19.06
2023-03-29T13:04:13.596Z,18.83
2023-03-29T13:06:50.526Z,18.56
2023-03-29T13:09:29.810Z,18.81
2023-03-29T13:12:21.231Z,18.49
2023-03-29T13:14:57.837Z,18.40
2023-03-29T13:17:39.700Z,18.66
2023-03-29T13:20:32.088Z,19.03
2023-03-29T13:23:21.913Z,18.86
2023-03-29T13:26:32.509Z,19.15
2023-03-29T13:29:20.778Z,19.18
2023-03-29T13:31:57.500Z,19.37
2023-03-29T13:34:37.626Z,19.68
2023-03-29T13:37:34.657Z,19.28
2023-03-29T13:40:01.687Z,18.89
2023-03-29T13:42:34.138Z,19.33
2023-03-29T13:45:25.167Z,19.48
2023-03-29T13:48:20.511Z,19.35
2023-03-29T13:50:58.511Z,19.43
2023-03-29T13:53:51.778Z,19.47
2023-03-29T13:56:49.191Z,19.34
2023-03-29T13:59:19.877Z,19.43
2023-03-29T14:01:57.788Z,19.18
2023-03-29T14:04:28.358Z,19.32
2023-03-29T14:06:56.643Z,19.24
2023-03-29T14:09:30.771Z,19.42
2023-03-29T14:11:59.848Z,19.22
2023-03-29T14:14:29.666Z,19.37
2023-03-29T14:16:56.701Z,19.42
2023-03-29T14:19:42.137Z,19.21
2023-03-29T14:22:13.584Z,19.20
2023-03-29T14:24:47.974Z,19.40
2023-03-29T14:27:14.218Z,19.38
2023-03-29T14:29:40.615Z,19.50
2023-03-29T14:32:11.349Z,19.11
2023-03-29T14:34:38.881Z,19.41
2023-03-29T14:37:08.883Z,19.57
2023-03-29T14:39:35.937Z,19.02
2023-03-29T14:42:02.566Z,19.77
2023-03-29T14:44:32.998Z,19.78
2023-03-29T14:47:01.493Z,19.54
2023-03-29T14:49:28.733Z,19.79
2023-03-29T14:51:55.723Z,19.46
2023-03-29T14:54:26.203Z,19.29
2023-03-29T14:56:53.743Z,19.39
2023-03-29T14:59:35.170Z,19.54
2023-03-29T15:02:01.555Z,19.45
2023-03-29T15:04:35.538Z,19.46
2023-03-29T15:07:04.213Z,19.18
2023-03-29T15:09:34.598Z,19.39
2023-03-29T15:12:03.083Z,19.11
2023-03-29T15:14:36.772Z,19.40
2023-03-29T15:17:06.929Z,19.46
2023-03-29T15:19:34.257Z,19.41
2023-03-29T15:22:10.936Z,19.37
2023-03-29T15:24:44.481Z,19.14
2023-03-29T15:27:15.715Z,19.44
2023-03-29T15:29:43.491Z,19.17
2023-03-29T15:32:19.910Z,19.42
2023-03-29T15:34:47.287Z,19.32
2023-03-29T15:37:13.788Z,19.51
2023-03-29T15:39:44.034Z,19.59
2023-03-29T15:42:10.961Z,19.66
2023-03-29T15:44:38.571Z,19.89
2023-03-29T15:47:10.708Z,19.72
2023-03-29T15:49:37.086Z,19.76
2023-03-29T15:52:04.136Z,19.65
2023-03-29T15:54:31.592Z,19.47
2023-03-29T15:57:05.385Z,19.66
2023-03-29T15:59:32.137Z,20.00
2023-03-29T16:01:59.426Z,20.07
2023-03-29T16:04:26.192Z,19.69
2023-03-29T16:06:54.568Z,19.72
2023-03-29T16:09:22.353Z,19.86
2023-03-29T16:11:49.687Z,19.76
2023-03-29T16:14:24.157Z,19.89
2023-03-29T16:16:52.264Z,19.71
2023-03-29T16:19:19.443Z,19.89
2023-03-29T16:21:45.884Z,19.81
2023-03-29T16:24:15.193Z,19.54
2023-03-29T16:26:42.526Z,19.61
2023-03-29T16:29:09.283Z,19.64
2023-03-29T16:31:36.400Z,19.68
2023-03-29T16:34:04.133Z,19.64
2023-03-29T16:36:31.860Z,19.53
2023-03-29T16:38:58.869Z,19.78
2023-03-29T16:41:25.716Z,19.52
2023-03-29T16:43:52.043Z,19.61
2023-03-29T16:46:18.486Z,19.47
2023-03-29T16:48:44.832Z,19.39
2023-03-29T16:51:11.211Z,19.51
2023-03-29T16:53:38.024Z,19.44
2023-03-29T16:56:05.155Z,19.32
2023-03-29T16:58:31.911Z,19.20
2023-03-29T17:00:58.366Z,19.11
2023-03-29T17:03:24.821Z,19.14
2023-03-29T17:05:53.217Z,19.29
2023-03-29T17:08:21.051Z,19.18
2023-03-29T17:10:53.234Z,19.38
2023-03-29T17:13:21.122Z,19.34
2023-03-29T17:15:48.759Z,18.93
2023-03-29T17:18:15.200Z,19.14
2023-03-29T17:20:41.510Z,18.98
2023-03-29T17:23:08.745Z,18.99
2023-03-29T17:25:36.406Z,19.25
2023-03-29T17:28:03.542Z,19.15
2023-03-29T17:30:29.990Z,19.05
2023-03-29T17:32:56.652Z,19.24
2023-03-29T17:35:23.079Z,19.09
2023-03-29T17:37:49.454Z,18.90
2023-03-29T17:40:17.135Z,18.93
2023-03-29T17:42:46.327Z,18.79
2023-03-29T17:45:12.716Z,18.93
2023-03-29T17:47:39.106Z,19.13
2023-03-29T17:50:07.003Z,19.06
2023-03-29T17:52:33.753Z,18.74
2023-03-29T17:55:00.213Z,18.67
2023-03-29T17:57:26.657Z,18.68
2023-03-29T17:59:53.363Z,18.71
2023-03-29T18:02:22.473Z,18.91
2023-03-29T18:04:48.940Z,18.73
2023-03-29T18:07:15.800Z,18.59
2023-03-29T18:09:42.525Z,18.64
2023-03-29T18:12:08.947Z,18.63
2023-03-29T18:14:35.545Z,18.56
2023-03-29T18:17:02.447Z,18.56
2023-03-29T18:19:28.955Z,18.47
2023-03-29T18:21:56.127Z,18.44
2023-03-29T18:24:22.471Z,18.73
2023-03-29T18:26:48.809Z,18.50
2023-03-29T18:29:15.430Z,18.56
2023-03-29T18:31:42.673Z,18.60
2023-03-29T18:34:09.233Z,18.46
2023-03-29T18:36:35.696Z,18.16
2023-03-29T18:39:05.693Z,18.39
2023-03-29T18:41:33.638Z,18.22
2023-03-29T18:44:00.763Z,18.56
2023-03-29T18:46:31.683Z,18.52
2023-03-29T18:48:59.417Z,18.26
2023-03-29T18:51:28.000Z,18.27
2023-03-29T18:53:55.932Z,18.43
2023-03-29T18:56:22.453Z,18.30
2023-03-29T18:58:48.968Z,18.19
2023-03-29T19:01:15.579Z,18.33
2023-03-29T19:03:41.981Z,18.33
2023-03-29T19:06:08.505Z,18.16
2023-03-29T19:08:37.233Z,18.18
2023-03-29T19:11:06.404Z,18.29
2023-03-29T19:13:33.127Z,18.14
2023-03-29T19:15:59.705Z,17.95
2023-03-29T19:18:35.351Z,18.29
2023-03-29T19:21:02.328Z,18.25
2023-03-29T19:23:28.753Z,17.65
2023-03-29T19:26:00.026Z,18.19
2023-03-29T19:28:27.296Z,18.15
2023-03-29T19:30:54.443Z,18.11
2023-03-29T19:33:20.881Z,18.09
2023-03-29T19:35:50.488Z,18.04
2023-03-29T19:38:17.212Z,17.79
2023-03-29T19:40:48.602Z,17.77
2023-03-29T19:43:16.676Z,17.81
2023-03-29T19:45:44.076Z,17.83
2023-03-29T19:50:42.693Z,17.82
2023-03-29T19:53:10.304Z,17.67
2023-03-29T19:55:40.015Z,17.56
2023-03-29T19:58:07.028Z,17.56
2023-03-29T20:00:33.454Z,17.54
2023-03-29T20:02:59.815Z,17.60
2023-03-29T20:05:26.699Z,17.68
2023-03-29T20:07:54.160Z,16.92
2023-03-29T20:10:20.897Z,17.37
2023-03-29T20:12:47.744Z,17.61
2023-03-29T20:15:14.321Z,17.51
2023-03-29T20:17:41.280Z,17.35
2023-03-29T20:20:10.024Z,17.40
2023-03-29T20:22:38.031Z,17.49
2023-03-29T20:25:05.393Z,17.35
2023-03-29T20:27:31.956Z,17.43
2023-03-29T20:29:58.308Z,17.25
2023-03-29T20:32:24.738Z,17.22
2023-03-29T20:34:51.233Z,16.79
2023-03-29T20:37:17.586Z,17.14
2023-03-29T20:39:43.907Z,17.31
2023-03-29T20:42:11.103Z,17.13
2023-03-29T20:44:39.032Z,17.23
2023-03-29T20:47:07.946Z,17.21
2023-03-29T20:49:39.184Z,17.02
2023-03-29T20:52:10.539Z,17.30
2023-03-29T20:54:37.295Z,17.10
2023-03-29T20:57:04.860Z,17.26
2023-03-29T20:59:31.232Z,17.12
2023-03-29T21:01:58.341Z,17.20
2023-03-29T21:04:24.841Z,17.02
2023-03-29T21:06:51.293Z,16.80
2023-03-29T21:09:20.855Z,17.18
2023-03-29T21:11:48.536Z,17.17
2023-03-29T21:14:19.339Z,17.14
2023-03-29T21:16:47.240Z,17.06
2023-03-29T21:19:15.367Z,17.12
2023-03-29T21:21:42.667Z,17.08
2023-03-29T21:24:10.538Z,16.98
2023-03-29T21:26:37.237Z,16.99
2023-03-29T21:29:03.787Z,16.98
2023-03-29T21:31:30.373Z,16.93
2023-03-29T21:33:56.736Z,16.73
2023-03-29T21:36:23.742Z,16.87
2023-03-29T21:38:51.413Z,16.79
2023-03-29T21:41:18.640Z,16.89
2023-03-29T21:43:45.355Z,16.65
2023-03-29T21:46:12.400Z,16.77
2023-03-29T21:48:38.847Z,16.36
2023-03-29T21:51:05.758Z,16.51
2023-03-29T21:53:32.337Z,16.49
2023-03-29T21:55:58.677Z,16.66
2023-03-29T21:58:25.023Z,16.51
2023-03-29T22:00:51.737Z,16.68
2023-03-29T22:03:18.148Z,16.67
2023-03-29T22:05:56.005Z,16.70
2023-03-29T22:08:26.125Z,16.68
2023-03-29T22:10:57.685Z,16.63
2023-03-29T22:13:26.004Z,16.88
2023-03-29T22:15:58.582Z,16.84
2023-03-29T22:18:30.033Z,16.94
2023-03-29T22:20:57.456Z,16.76
2023-03-29T22:23:24.781Z,16.80
2023-03-29T22:25:51.256Z,16.65
2023-03-29T22:28:17.656Z,16.76
2023-03-29T22:30:44.136Z,16.68
2023-03-29T22:33:11.130Z,16.87
2023-03-29T22:35:37.549Z,16.88
2023-03-29T22:38:04.037Z,16.79
2023-03-29T22:40:33.101Z,16.65
2023-03-29T22:42:59.780Z,16.50
2023-03-29T22:45:26.150Z,16.73
2023-03-29T22:47:52.595Z,16.42
2023-03-29T22:50:18.944Z,16.77
2023-03-29T22:52:45.540Z,16.36
2023-03-29T22:55:11.860Z,16.74
2023-03-29T22:57:38.186Z,16.42
2023-03-29T23:00:08.660Z,16.85
2023-03-29T23:02:35.287Z,16.87
2023-03-29T23:05:01.855Z,16.85
2023-03-29T23:07:28.263Z,17.06
2023-03-29T23:09:54.674Z,16.92
2023-03-29T23:12:21.113Z,17.13
2023-03-29T23:14:47.456Z,17.00
2023-03-29T23:17:13.787Z,16.97
2023-03-29T23:19:40.105Z,16.90
2023-03-29T23:22:06.519Z,17.04
2023-03-29T23:24:33.286Z,17.02
2023-03-29T23:27:01.002Z,16.96
2023-03-29T23:29:27.575Z,17.01
2023-03-29T23:31:56.621Z,16.93
2023-03-29T23:34:23.057Z,16.55
2023-03-29T23:36:49.374Z,17.04
2023-03-29T23:39:16.115Z,17.11
2023-03-29T23:41:42.428Z,16.93
2023-03-29T23:44:08.815Z,17.06
2023-03-29T23:46:35.470Z,17.00
2023-03-29T23:49:01.851Z,16.92
2023-03-29T23:51:28.348Z,16.93
2023-03-29T23:53:55.699Z,17.14
2023-03-29T23:56:22.893Z,16.98
2023-03-29T23:58:49.488Z,16.96
